sensor_id;sensor_type;location;lat;lon;timestamp;temperature;humidity
25991;DHT22;13779;-33.886;151.198;2023-04-01T00:00:04;18.50;99.90
25991;DHT22;13779;-33.886;151.198;2023-04-01T00:02:36;18.50;99.90
25991;DHT22;13779;-33.886;151.198;2023-04-01T00:05:08;18.60;99.90
25991;DHT22;13779;-33.886;151.198;2023-04-01T00:07:40;18.60;99.90
25991;DHT22;13779;-33.886;151.198;2023-04-01T00:10:12;18.50;99.90
25991;DHT22;13779;-33.886;151.198;2023-04-01T00:12:44;18.40;99.90
25991;DHT22;13779;-33.886;151.198;2023-04-01T00:15:15;18.40;99.90
25991;DHT22;13779;-33.886;151.198;2023-04-01T00:17:48;18.30;99.90
25991;DHT22;13779;-33.886;151.198;2023-04-01T00:20:19;18.30;99.90
25991;DHT22;13779;-33.886;151.198;2023-04-01T00:22:50;18.30;99.90
25991;DHT22;13779;-33.886;151.198;2023-04-01T00:25:22;18.20;99.90
25991;DHT22;13779;-33.886;151.198;2023-04-01T00:27:53;18.20;99.90
25991;DHT22;13779;-33.886;151.198;2023-04-01T00:30:24;18.20;99.90
25991;DHT22;13779;-33.886;151.198;2023-04-01T00:32:54;18.30;99.90
25991;DHT22;13779;-33.886;151.198;2023-04-01T00:35:25;18.20;99.90
25991;DHT22;13779;-33.886;151.198;2023-04-01T00:37:55;18.10;99.90
25991;DHT22;13779;-33.886;151.198;2023-04-01T00:40:39;18.10;99.90
25991;DHT22;13779;-33.886;151.198;2023-04-01T00:43:16;18.10;99.90
25991;DHT22;13779;-33.886;151.198;2023-04-01T00:45:51;18.10;99.90
25991;DHT22;13779;-33.886;151.198;2023-04-01T00:48:28;18.10;99.90
25991;DHT22;13779;-33.886;151.198;2023-04-01T00:51:08;18.10;99.90
25991;DHT22;13779;-33.886;151.198;2023-04-01T00:53:43;18.10;99.90
25991;DHT22;13779;-33.886;151.198;2023-04-01T00:57:04;18.00;99.90
25991;DHT22;13779;-33.886;151.198;2023-04-01T00:59:17;18.00;99.90
25991;DHT22;13779;-33.886;151.198;2023-04-01T01:01:50;18.00;99.90
25991;DHT22;13779;-33.886;151.198;2023-04-01T01:04:31;18.10;99.90
25991;DHT22;13779;-33.886;151.198;2023-04-01T01:10:24;18.00;99.90
25991;DHT22;13779;-33.886;151.198;2023-04-01T01:15:56;18.00;99.90
25991;DHT22;13779;-33.886;151.198;2023-04-01T01:18:45;18.10;99.90
25991;DHT22;13779;-33.886;151.198;2023-04-01T01:27:21;18.20;99.90
25991;DHT22;13779;-33.886;151.198;2023-04-01T01:30:19;18.20;99.90
25991;DHT22;13779;-33.886;151.198;2023-04-01T01:33:38;18.10;99.90
25991;DHT22;13779;-33.886;151.198;2023-04-01T01:35:53;18.00;99.90
25991;DHT22;13779;-33.886;151.198;2023-04-01T01:38:27;18.00;99.90
25991;DHT22;13779;-33.886;151.198;2023-04-01T01:40:59;17.90;99.90
25991;DHT22;13779;-33.886;151.198;2023-04-01T01:43:39;17.90;99.90
25991;DHT22;13779;-33.886;151.198;2023-04-01T01:46:18;17.90;99.90
25991;DHT22;13779;-33.886;151.198;2023-04-01T01:48:50;17.90;99.90
25991;DHT22;13779;-33.886;151.198;2023-04-01T01:51:21;17.90;99.90
25991;DHT22;13779;-33.886;151.198;2023-04-01T01:53:52;17.80;99.90
25991;DHT22;13779;-33.886;151.198;2023-04-01T01:56:25;17.80;99.90
25991;DHT22;13779;-33.886;151.198;2023-04-01T01:59:02;17.90;99.90
25991;DHT22;13779;-33.886;151.198;2023-04-01T02:01:35;17.90;99.90
25991;DHT22;13779;-33.886;151.198;2023-04-01T02:04:09;17.90;99.90
25991;DHT22;13779;-33.886;151.198;2023-04-01T02:09:31;17.90;99.90
25991;DHT22;13779;-33.886;151.198;2023-04-01T02:12:05;18.00;99.90
25991;DHT22;13779;-33.886;151.198;2023-04-01T02:14:42;17.90;99.90
25991;DHT22;13779;-33.886;151.198;2023-04-01T02:17:25;18.00;99.90
25991;DHT22;13779;-33.886;151.198;2023-04-01T02:22:39;18.10;99.90
25991;DHT22;13779;-33.886;151.198;2023-04-01T02:25:20;18.10;99.90
25991;DHT22;13779;-33.886;151.198;2023-04-01T02:27:52;18.00;99.90
25991;DHT22;13779;-33.886;151.198;2023-04-01T02:30:26;18.10;99.90
25991;DHT22;13779;-33.886;151.198;2023-04-01T02:32:59;18.10;99.90
25991;DHT22;13779;-33.886;151.198;2023-04-01T02:35:30;18.10;99.90
25991;DHT22;13779;-33.886;151.198;2023-04-01T02:38:04;18.10;99.90
25991;DHT22;13779;-33.886;151.198;2023-04-01T02:40:47;18.20;99.90
25991;DHT22;13779;-33.886;151.198;2023-04-01T02:43:18;18.10;99.90
25991;DHT22;13779;-33.886;151.198;2023-04-01T02:45:50;18.00;99.90
25991;DHT22;13779;-33.886;151.198;2023-04-01T02:48:20;18.00;99.90
25991;DHT22;13779;-33.886;151.198;2023-04-01T02:50:50;17.90;99.90
25991;DHT22;13779;-33.886;151.198;2023-04-01T02:53:21;17.90;99.90
25991;DHT22;13779;-33.886;151.198;2023-04-01T02:55:52;17.90;99.90
25991;DHT22;13779;-33.886;151.198;2023-04-01T02:58:22;18.00;99.90
25991;DHT22;13779;-33.886;151.198;2023-04-01T03:00:53;18.10;99.90
25991;DHT22;13779;-33.886;151.198;2023-04-01T03:03:23;18.00;99.90
25991;DHT22;13779;-33.886;151.198;2023-04-01T03:05:54;18.10;99.90
25991;DHT22;13779;-33.886;151.198;2023-04-01T03:08:29;18.00;99.90
25991;DHT22;13779;-33.886;151.198;2023-04-01T03:11:00;18.00;99.90
25991;DHT22;13779;-33.886;151.198;2023-04-01T03:13:31;18.00;99.90
25991;DHT22;13779;-33.886;151.198;2023-04-01T03:16:01;18.00;99.90
25991;DHT22;13779;-33.886;151.198;2023-04-01T03:18:32;18.00;99.90
25991;DHT22;13779;-33.886;151.198;2023-04-01T03:21:20;17.90;99.90
25991;DHT22;13779;-33.886;151.198;2023-04-01T03:23:51;17.90;99.90
25991;DHT22;13779;-33.886;151.198;2023-04-01T03:26:22;17.90;99.90
25991;DHT22;13779;-33.886;151.198;2023-04-01T03:28:53;17.90;99.90
25991;DHT22;13779;-33.886;151.198;2023-04-01T03:31:25;17.90;99.90
25991;DHT22;13779;-33.886;151.198;2023-04-01T03:33:58;18.00;99.90
25991;DHT22;13779;-33.886;151.198;2023-04-01T03:36:29;18.00;99.90
25991;DHT22;13779;-33.886;151.198;2023-04-01T03:38:59;17.90;99.90
25991;DHT22;13779;-33.886;151.198;2023-04-01T03:41:30;17.90;99.90
25991;DHT22;13779;-33.886;151.198;2023-04-01T03:44:00;17.80;99.90
25991;DHT22;13779;-33.886;151.198;2023-04-01T03:46:31;17.80;99.90
25991;DHT22;13779;-33.886;151.198;2023-04-01T03:49:02;17.90;99.90
25991;DHT22;13779;-33.886;151.198;2023-04-01T03:51:33;17.90;99.90
25991;DHT22;13779;-33.886;151.198;2023-04-01T03:54:03;17.90;99.90
25991;DHT22;13779;-33.886;151.198;2023-04-01T03:56:34;17.90;99.90
25991;DHT22;13779;-33.886;151.198;2023-04-01T03:59:06;17.90;99.90
25991;DHT22;13779;-33.886;151.198;2023-04-01T04:01:37;18.00;99.90
25991;DHT22;13779;-33.886;151.198;2023-04-01T04:04:07;18.00;99.90
25991;DHT22;13779;-33.886;151.198;2023-04-01T04:06:43;18.00;99.90
25991;DHT22;13779;-33.886;151.198;2023-04-01T04:09:14;18.10;99.90
25991;DHT22;13779;-33.886;151.198;2023-04-01T04:11:44;18.10;99.90
25991;DHT22;13779;-33.886;151.198;2023-04-01T04:14:14;18.10;99.90
25991;DHT22;13779;-33.886;151.198;2023-04-01T04:16:44;18.20;99.90
25991;DHT22;13779;-33.886;151.198;2023-04-01T04:19:15;18.30;99.90
25991;DHT22;13779;-33.886;151.198;2023-04-01T04:21:45;18.30;99.90
25991;DHT22;13779;-33.886;151.198;2023-04-01T04:24:15;18.30;99.90
25991;DHT22;13779;-33.886;151.198;2023-04-01T04:26:45;18.20;99.90
25991;DHT22;13779;-33.886;151.198;2023-04-01T04:29:15;18.20;99.90
25991;DHT22;13779;-33.886;151.198;2023-04-01T04:31:45;18.20;99.90
25991;DHT22;13779;-33.886;151.198;2023-04-01T04:34:15;18.20;99.90
25991;DHT22;13779;-33.886;151.198;2023-04-01T04:36:47;18.30;99.90
25991;DHT22;13779;-33.886;151.198;2023-04-01T04:39:18;18.20;99.90
25991;DHT22;13779;-33.886;151.198;2023-04-01T04:41:48;18.20;99.90
25991;DHT22;13779;-33.886;151.198;2023-04-01T04:44:19;18.20;99.90
25991;DHT22;13779;-33.886;151.198;2023-04-01T04:46:49;18.10;99.90
25991;DHT22;13779;-33.886;151.198;2023-04-01T04:49:19;18.00;99.90
25991;DHT22;13779;-33.886;151.198;2023-04-01T04:51:50;18.00;99.90
25991;DHT22;13779;-33.886;151.198;2023-04-01T04:54:21;18.10;99.90
25991;DHT22;13779;-33.886;151.198;2023-04-01T04:56:53;18.10;99.90
25991;DHT22;13779;-33.886;151.198;2023-04-01T04:59:23;18.10;99.90
25991;DHT22;13779;-33.886;151.198;2023-04-01T05:01:54;18.10;99.90
25991;DHT22;13779;-33.886;151.198;2023-04-01T05:04:25;18.20;99.90
25991;DHT22;13779;-33.886;151.198;2023-04-01T05:06:55;18.30;99.90
25991;DHT22;13779;-33.886;151.198;2023-04-01T05:09:26;18.40;99.90
25991;DHT22;13779;-33.886;151.198;2023-04-01T05:11:56;18.50;99.90
25991;DHT22;13779;-33.886;151.198;2023-04-01T05:14:27;18.50;99.90
25991;DHT22;13779;-33.886;151.198;2023-04-01T05:16:58;18.60;99.90
25991;DHT22;13779;-33.886;151.198;2023-04-01T05:19:28;18.60;99.90
25991;DHT22;13779;-33.886;151.198;2023-04-01T05:22:02;18.70;99.90
25991;DHT22;13779;-33.886;151.198;2023-04-01T05:24:33;18.80;99.90
25991;DHT22;13779;-33.886;151.198;2023-04-01T05:27:04;18.80;99.90
25991;DHT22;13779;-33.886;151.198;2023-04-01T05:29:35;18.90;99.90
25991;DHT22;13779;-33.886;151.198;2023-04-01T05:32:05;19.00;99.90
25991;DHT22;13779;-33.886;151.198;2023-04-01T05:34:36;19.00;99.90
25991;DHT22;13779;-33.886;151.198;2023-04-01T05:37:07;19.00;99.90
25991;DHT22;13779;-33.886;151.198;2023-04-01T05:39:40;19.10;99.90
25991;DHT22;13779;-33.886;151.198;2023-04-01T05:42:11;19.10;99.90
25991;DHT22;13779;-33.886;151.198;2023-04-01T05:44:41;19.20;99.90
25991;DHT22;13779;-33.886;151.198;2023-04-01T05:47:12;19.30;99.90
25991;DHT22;13779;-33.886;151.198;2023-04-01T05:49:43;19.30;99.90
25991;DHT22;13779;-33.886;151.198;2023-04-01T05:52:13;19.30;99.90
25991;DHT22;13779;-33.886;151.198;2023-04-01T05:54:43;19.30;99.90
25991;DHT22;13779;-33.886;151.198;2023-04-01T05:57:14;19.20;99.90
25991;DHT22;13779;-33.886;151.198;2023-04-01T05:59:44;19.20;99.90
25991;DHT22;13779;-33.886;151.198;2023-04-01T06:02:17;19.20;99.90
25991;DHT22;13779;-33.886;151.198;2023-04-01T06:04:48;19.20;99.90
25991;DHT22;13779;-33.886;151.198;2023-04-01T06:07:19;19.20;99.90
25991;DHT22;13779;-33.886;151.198;2023-04-01T06:09:49;19.20;99.90
25991;DHT22;13779;-33.886;151.198;2023-04-01T06:24:04;19.30;99.90
25991;DHT22;13779;-33.886;151.198;2023-04-01T06:27:06;19.30;99.90
25991;DHT22;13779;-33.886;151.198;2023-04-01T06:29:57;19.20;99.90
25991;DHT22;13779;-33.886;151.198;2023-04-01T06:46:44;19.30;99.90
25991;DHT22;13779;-33.886;151.198;2023-04-01T06:52:01;19.20;99.90
25991;DHT22;13779;-33.886;151.198;2023-04-01T06:59:55;19.40;99.90
25991;DHT22;13779;-33.886;151.198;2023-04-01T07:02:45;19.40;99.90
25991;DHT22;13779;-33.886;151.198;2023-04-01T07:05:23;19.40;99.90
25991;DHT22;13779;-33.886;151.198;2023-04-01T07:07:57;19.40;99.90
25991;DHT22;13779;-33.886;151.198;2023-04-01T07:11:04;19.30;99.90
25991;DHT22;13779;-33.886;151.198;2023-04-01T07:16:38;19.40;99.90
25991;DHT22;13779;-33.886;151.198;2023-04-01T07:20:10;19.40;99.90
25991;DHT22;13779;-33.886;151.198;2023-04-01T07:24:54;19.40;99.90
25991;DHT22;13779;-33.886;151.198;2023-04-01T07:27:27;19.40;99.90
25991;DHT22;13779;-33.886;151.198;2023-04-01T07:29:58;19.30;99.90
25991;DHT22;13779;-33.886;151.198;2023-04-01T07:35:42;19.30;99.90
25991;DHT22;13779;-33.886;151.198;2023-04-01T07:52:19;19.40;99.90
25991;DHT22;13779;-33.886;151.198;2023-04-01T07:55:29;19.30;99.90
25991;DHT22;13779;-33.886;151.198;2023-04-01T08:04:05;19.30;99.90
25991;DHT22;13779;-33.886;151.198;2023-04-01T08:07:10;19.30;99.90
25991;DHT22;13779;-33.886;151.198;2023-04-01T08:10:02;19.30;99.90
25991;DHT22;13779;-33.886;151.198;2023-04-01T08:15:23;19.30;99.90
25991;DHT22;13779;-33.886;151.198;2023-04-01T08:21:03;19.30;99.90
25991;DHT22;13779;-33.886;151.198;2023-04-01T08:23:41;19.30;99.90
25991;DHT22;13779;-33.886;151.198;2023-04-01T08:35:34;19.20;99.90
25991;DHT22;13779;-33.886;151.198;2023-04-01T08:38:21;19.20;99.90
25991;DHT22;13779;-33.886;151.198;2023-04-01T08:43:51;19.30;99.90
25991;DHT22;13779;-33.886;151.198;2023-04-01T08:49:06;19.30;99.90
25991;DHT22;13779;-33.886;151.198;2023-04-01T09:20:28;19.10;99.90
25991;DHT22;13779;-33.886;151.198;2023-04-01T09:29:58;19.00;99.90
25991;DHT22;13779;-33.886;151.198;2023-04-01T09:40:58;19.00;99.90
25991;DHT22;13779;-33.886;151.198;2023-04-01T09:57:22;18.90;99.90
25991;DHT22;13779;-33.886;151.198;2023-04-01T10:00:24;18.90;99.90
25991;DHT22;13779;-33.886;151.198;2023-04-01T10:06:00;18.80;99.90
25991;DHT22;13779;-33.886;151.198;2023-04-01T10:20:18;18.80;99.90
25991;DHT22;13779;-33.886;151.198;2023-04-01T10:40:46;18.70;99.90
25991;DHT22;13779;-33.886;151.198;2023-04-01T10:43:43;18.60;99.90
25991;DHT22;13779;-33.886;151.198;2023-04-01T10:46:30;18.60;99.90
25991;DHT22;13779;-33.886;151.198;2023-04-01T10:54:58;18.50;99.90
25991;DHT22;13779;-33.886;151.198;2023-04-01T11:00:32;18.40;99.90
25991;DHT22;13779;-33.886;151.198;2023-04-01T11:09:34;18.40;99.90
25991;DHT22;13779;-33.886;151.198;2023-04-01T11:12:14;18.40;99.90
25991;DHT22;13779;-33.886;151.198;2023-04-01T11:17:55;18.30;99.90
25991;DHT22;13779;-33.886;151.198;2023-04-01T11:21:17;18.40;99.90
25991;DHT22;13779;-33.886;151.198;2023-04-01T11:24:09;18.40;99.90
25991;DHT22;13779;-33.886;151.198;2023-04-01T11:26:55;18.40;99.90
25991;DHT22;13779;-33.886;151.198;2023-04-01T11:33:34;18.40;99.90
25991;DHT22;13779;-33.886;151.198;2023-04-01T11:36:16;18.40;99.90
25991;DHT22;13779;-33.886;151.198;2023-04-01T11:44:28;18.30;99.90
25991;DHT22;13779;-33.886;151.198;2023-04-01T11:47:58;18.10;99.90
25991;DHT22;13779;-33.886;151.198;2023-04-01T12:02:11;18.10;99.90
25991;DHT22;13779;-33.886;151.198;2023-04-01T12:05:23;18.10;99.90
25991;DHT22;13779;-33.886;151.198;2023-04-01T12:19:08;18.10;99.90
25991;DHT22;13779;-33.886;151.198;2023-04-01T12:21:52;18.00;99.90
25991;DHT22;13779;-33.886;151.198;2023-04-01T12:24:45;18.00;99.90
25991;DHT22;13779;-33.886;151.198;2023-04-01T12:30:30;18.00;99.90
25991;DHT22;13779;-33.886;151.198;2023-04-01T12:47:50;18.00;99.90
25991;DHT22;13779;-33.886;151.198;2023-04-01T12:56:00;17.80;99.90
25991;DHT22;13779;-33.886;151.198;2023-04-01T12:58:55;17.80;99.90
25991;DHT22;13779;-33.886;151.198;2023-04-01T13:01:50;17.90;99.90
25991;DHT22;13779;-33.886;151.198;2023-04-01T13:04:34;17.90;99.90
25991;DHT22;13779;-33.886;151.198;2023-04-01T13:09:59;17.90;99.90
25991;DHT22;13779;-33.886;151.198;2023-04-01T13:26:53;17.40;99.90
25991;DHT22;13779;-33.886;151.198;2023-04-01T13:43:57;17.00;99.90
25991;DHT22;13779;-33.886;151.198;2023-04-01T13:46:38;17.00;99.90
25991;DHT22;13779;-33.886;151.198;2023-04-01T13:52:23;17.00;99.90
25991;DHT22;13779;-33.886;151.198;2023-04-01T14:37:55;17.70;99.90
25991;DHT22;13779;-33.886;151.198;2023-04-01T14:46:06;17.70;99.90
25991;DHT22;13779;-33.886;151.198;2023-04-01T14:51:30;17.80;99.90
25991;DHT22;13779;-33.886;151.198;2023-04-01T14:54:15;17.80;99.90
25991;DHT22;13779;-33.886;151.198;2023-04-01T14:57:14;17.80;99.90
25991;DHT22;13779;-33.886;151.198;2023-04-01T15:08:31;17.80;99.90
25991;DHT22;13779;-33.886;151.198;2023-04-01T15:27:47;17.90;99.90
25991;DHT22;13779;-33.886;151.198;2023-04-01T15:30:27;17.80;99.90
25991;DHT22;13779;-33.886;151.198;2023-04-01T15:35:46;17.90;99.90
25991;DHT22;13779;-33.886;151.198;2023-04-01T15:41:17;17.80;99.90
25991;DHT22;13779;-33.886;151.198;2023-04-01T15:43:52;17.80;99.90
25991;DHT22;13779;-33.886;151.198;2023-04-01T15:46:44;17.80;99.90
25991;DHT22;13779;-33.886;151.198;2023-04-01T15:49:28;17.80;99.90
25991;DHT22;13779;-33.886;151.198;2023-04-01T16:00:41;17.70;99.90
25991;DHT22;13779;-33.886;151.198;2023-04-01T16:03:33;17.70;99.90
25991;DHT22;13779;-33.886;151.198;2023-04-01T16:06:31;17.70;99.90
25991;DHT22;13779;-33.886;151.198;2023-04-01T16:12:36;17.70;99.90
25991;DHT22;13779;-33.886;151.198;2023-04-01T16:15:35;17.80;99.90
25991;DHT22;13779;-33.886;151.198;2023-04-01T16:18:21;17.80;99.90
25991;DHT22;13779;-33.886;151.198;2023-04-01T16:23:59;17.80;99.90
25991;DHT22;13779;-33.886;151.198;2023-04-01T16:26:55;17.70;99.90
25991;DHT22;13779;-33.886;151.198;2023-04-01T16:35:23;17.70;99.90
25991;DHT22;13779;-33.886;151.198;2023-04-01T16:38:13;17.60;99.90
25991;DHT22;13779;-33.886;151.198;2023-04-01T16:41:00;17.60;99.90
25991;DHT22;13779;-33.886;151.198;2023-04-01T16:43:50;17.60;99.90
25991;DHT22;13779;-33.886;151.198;2023-04-01T16:49:17;17.50;99.90
25991;DHT22;13779;-33.886;151.198;2023-04-01T16:55:21;17.60;99.90
25991;DHT22;13779;-33.886;151.198;2023-04-01T16:57:57;17.70;99.90
25991;DHT22;13779;-33.886;151.198;2023-04-01T17:00:38;17.70;99.90
25991;DHT22;13779;-33.886;151.198;2023-04-01T17:03:27;17.70;99.90
25991;DHT22;13779;-33.886;151.198;2023-04-01T17:06:39;17.60;99.90
25991;DHT22;13779;-33.886;151.198;2023-04-01T17:09:24;17.60;99.90
25991;DHT22;13779;-33.886;151.198;2023-04-01T17:12:40;17.50;99.90
25991;DHT22;13779;-33.886;151.198;2023-04-01T17:15:35;17.50;99.90
25991;DHT22;13779;-33.886;151.198;2023-04-01T17:18:14;17.60;99.90
25991;DHT22;13779;-33.886;151.198;2023-04-01T17:23:52;17.50;99.90
25991;DHT22;13779;-33.886;151.198;2023-04-01T17:35:42;17.50;99.90
25991;DHT22;13779;-33.886;151.198;2023-04-01T17:49:29;17.30;99.90
25991;DHT22;13779;-33.886;151.198;2023-04-01T17:57:54;17.20;99.90
25991;DHT22;13779;-33.886;151.198;2023-04-01T18:09:42;17.00;99.90
25991;DHT22;13779;-33.886;151.198;2023-04-01T18:15:19;17.00;99.90
25991;DHT22;13779;-33.886;151.198;2023-04-01T18:23:41;17.10;99.90
25991;DHT22;13779;-33.886;151.198;2023-04-01T18:38:11;17.00;99.90
25991;DHT22;13779;-33.886;151.198;2023-04-01T18:41:05;17.10;99.90
25991;DHT22;13779;-33.886;151.198;2023-04-01T18:52:16;17.20;99.90
25991;DHT22;13779;-33.886;151.198;2023-04-01T18:57:54;17.10;99.90
25991;DHT22;13779;-33.886;151.198;2023-04-01T19:01:23;17.00;99.90
25991;DHT22;13779;-33.886;151.198;2023-04-01T19:03:55;17.00;99.90
25991;DHT22;13779;-33.886;151.198;2023-04-01T19:09:23;17.10;99.90
25991;DHT22;13779;-33.886;151.198;2023-04-01T19:12:18;17.10;99.90
25991;DHT22;13779;-33.886;151.198;2023-04-01T19:15:08;17.00;99.90
25991;DHT22;13779;-33.886;151.198;2023-04-01T19:18:14;17.00;99.90
25991;DHT22;13779;-33.886;151.198;2023-04-01T19:21:09;17.00;99.90
25991;DHT22;13779;-33.886;151.198;2023-04-01T19:24:23;17.00;99.90
25991;DHT22;13779;-33.886;151.198;2023-04-01T19:27:14;17.00;99.90
25991;DHT22;13779;-33.886;151.198;2023-04-01T19:32:56;17.10;99.90
25991;DHT22;13779;-33.886;151.198;2023-04-01T19:35:59;17.10;99.90
25991;DHT22;13779;-33.886;151.198;2023-04-01T19:38:56;17.10;99.90
25991;DHT22;13779;-33.886;151.198;2023-04-01T19:41:36;17.10;99.90
25991;DHT22;13779;-33.886;151.198;2023-04-01T19:52:42;17.20;99.90
25991;DHT22;13779;-33.886;151.198;2023-04-01T19:58:21;17.20;99.90
25991;DHT22;13779;-33.886;151.198;2023-04-01T20:00:58;17.20;99.90
25991;DHT22;13779;-33.886;151.198;2023-04-01T20:06:27;17.30;99.90
25991;DHT22;13779;-33.886;151.198;2023-04-01T20:18:18;17.30;99.90
25991;DHT22;13779;-33.886;151.198;2023-04-01T20:27:10;17.40;99.90
25991;DHT22;13779;-33.886;151.198;2023-04-01T20:47:49;17.30;99.90
25991;DHT22;13779;-33.886;151.198;2023-04-01T20:56:34;17.20;99.90
25991;DHT22;13779;-33.886;151.198;2023-04-01T21:10:51;17.10;99.90
25991;DHT22;13779;-33.886;151.198;2023-04-01T21:13:44;17.00;99.90
25991;DHT22;13779;-33.886;151.198;2023-04-01T21:17:02;17.00;99.90
25991;DHT22;13779;-33.886;151.198;2023-04-01T21:31:35;17.10;99.90
25991;DHT22;13779;-33.886;151.198;2023-04-01T21:34:42;17.00;99.90
25991;DHT22;13779;-33.886;151.198;2023-04-01T21:43:59;17.00;99.90
25991;DHT22;13779;-33.886;151.198;2023-04-01T21:46:24;17.00;99.90
25991;DHT22;13779;-33.886;151.198;2023-04-01T21:54:59;16.90;99.90
25991;DHT22;13779;-33.886;151.198;2023-04-01T21:57:43;17.00;99.90
25991;DHT22;13779;-33.886;151.198;2023-04-01T22:23:26;17.20;99.90
25991;DHT22;13779;-33.886;151.198;2023-04-01T22:29:16;17.20;99.90
25991;DHT22;13779;-33.886;151.198;2023-04-01T22:43:10;17.20;99.90
25991;DHT22;13779;-33.886;151.198;2023-04-01T22:48:49;17.20;99.90
25991;DHT22;13779;-33.886;151.198;2023-04-01T22:51:51;17.10;99.90
25991;DHT22;13779;-33.886;151.198;2023-04-01T22:54:47;17.10;99.90
25991;DHT22;13779;-33.886;151.198;2023-04-01T23:00:23;17.10;99.90
25991;DHT22;13779;-33.886;151.198;2023-04-01T23:03:21;17.00;99.90
25991;DHT22;13779;-33.886;151.198;2023-04-01T23:06:03;17.00;99.90
25991;DHT22;13779;-33.886;151.198;2023-04-01T23:19:38;17.20;99.90
25991;DHT22;13779;-33.886;151.198;2023-04-01T23:35:52;17.30;99.90
25991;DHT22;13779;-33.886;151.198;2023-04-01T23:38:25;17.30;99.90
25991;DHT22;13779;-33.886;151.198;2023-04-01T23:40:56;17.40;99.90
25991;DHT22;13779;-33.886;151.198;2023-04-01T23:43:33;17.40;99.90
25991;DHT22;13779;-33.886;151.198;2023-04-01T23:46:07;17.40;99.90
25991;DHT22;13779;-33.886;151.198;2023-04-01T23:48:40;17.40;99.90
25991;DHT22;13779;-33.886;151.198;2023-04-01T23:51:23;17.50;99.90
25991;DHT22;13779;-33.886;151.198;2023-04-01T23:54:24;17.50;99.90
25991;DHT22;13779;-33.886;151.198;2023-04-01T23:56:56;17.60;99.90
25991;DHT22;13779;-33.886;151.198;2023-04-01T23:59:34;17.60;99.90
